createdAt,value
2023-12-17T00:00:40.238Z,1.17
2023-12-17T00:03:18.697Z,1.08
2023-12-17T00:05:51.559Z,1.20
2023-12-17T00:08:23.891Z,1.20
2023-12-17T00:10:55.143Z,1.40
2023-12-17T00:13:26.899Z,1.20
2023-12-17T00:15:57.819Z,1.05
2023-12-17T00:18:28.189Z,1.60
2023-12-17T00:21:01.225Z,1.05
2023-12-17T00:23:31.223Z,1.10
2023-12-17T00:26:01.734Z,1.55
2023-12-17T00:28:32.718Z,1.20
2023-12-17T00:31:02.633Z,1.20
2023-12-17T00:33:33.187Z,1.50
2023-12-17T00:36:04.920Z,1.80
2023-12-17T00:38:36.255Z,1.30
2023-12-17T00:41:06.901Z,1.23
2023-12-17T00:43:39.814Z,1.50
2023-12-17T00:46:09.993Z,1.45
2023-12-17T00:48:40.666Z,1.35
2023-12-17T00:51:14.149Z,1.30
2023-12-17T00:53:44.724Z,1.35
2023-12-17T00:56:15.925Z,1.80
2023-12-17T00:58:49.326Z,1.30
2023-12-17T01:01:20.527Z,1.40
2023-12-17T01:03:50.813Z,1.63
2023-12-17T01:06:21.281Z,1.55
2023-12-17T01:08:51.477Z,1.35
2023-12-17T01:11:21.496Z,1.90
2023-12-17T01:18:07.580Z,1.65
2023-12-17T01:20:38.103Z,1.38
2023-12-17T01:23:08.020Z,2.05
2023-12-17T01:25:38.545Z,1.50
2023-12-17T01:28:08.704Z,1.63
2023-12-17T01:30:39.059Z,1.17
2023-12-17T01:33:10.846Z,0.93
2023-12-17T01:35:41.150Z,1.45
2023-12-17T01:38:11.929Z,1.17
2023-12-17T01:40:45.265Z,1.20
2023-12-17T01:43:16.247Z,1.20
2023-12-17T01:45:46.250Z,1.20
2023-12-17T01:48:16.664Z,1.02
2023-12-17T01:50:48.340Z,0.90
2023-12-17T01:53:19.488Z,1.00
2023-12-17T01:55:51.531Z,1.17
2023-12-17T01:58:22.458Z,1.38
2023-12-17T02:01:54.675Z,1.10
2023-12-17T02:04:26.190Z,1.30
2023-12-17T02:06:56.984Z,1.02
2023-12-17T02:09:27.772Z,1.13
2023-12-17T02:11:58.678Z,1.20
2023-12-17T02:14:28.627Z,1.45
2023-12-17T02:16:58.955Z,1.10
2023-12-17T02:19:29.345Z,1.20
2023-12-17T02:21:59.241Z,1.27
2023-12-17T02:24:29.212Z,1.10
2023-12-17T02:27:00.569Z,1.10
2023-12-17T02:29:31.277Z,1.10
2023-12-17T02:32:02.149Z,1.20
2023-12-17T02:34:32.389Z,1.30
2023-12-17T02:37:03.029Z,1.50
2023-12-17T02:39:34.324Z,1.10
2023-12-17T02:42:04.849Z,1.00
2023-12-17T02:44:35.079Z,1.55
2023-12-17T02:47:05.083Z,1.38
2023-12-17T02:49:36.302Z,1.38
2023-12-17T02:52:07.917Z,1.00
2023-12-17T02:54:40.581Z,1.02
2023-12-17T02:57:11.008Z,1.58
2023-12-17T02:59:43.303Z,1.05
2023-12-17T03:02:44.455Z,1.08
2023-12-17T03:05:15.967Z,1.58
2023-12-17T03:07:46.314Z,1.50
2023-12-17T03:10:17.123Z,1.70
2023-12-17T03:12:48.534Z,1.45
2023-12-17T03:15:19.231Z,1.67
2023-12-17T03:17:49.723Z,1.65
2023-12-17T03:20:19.992Z,1.75
2023-12-17T03:22:50.362Z,1.50
2023-12-17T03:25:21.194Z,1.95
2023-12-17T03:27:51.265Z,1.77
2023-12-17T03:30:21.693Z,2.00
2023-12-17T03:32:52.272Z,2.30
2023-12-17T03:35:22.407Z,1.83
2023-12-17T03:37:52.450Z,1.52
2023-12-17T03:40:22.217Z,2.05
2023-12-17T03:42:52.018Z,1.90
2023-12-17T03:45:24.718Z,1.70
2023-12-17T03:47:55.038Z,2.20
2023-12-17T03:50:26.333Z,2.13
2023-12-17T03:52:57.118Z,1.95
2023-12-17T03:55:27.073Z,1.92
2023-12-17T03:57:57.678Z,2.25
2023-12-17T04:00:28.013Z,1.90
2023-12-17T04:02:58.886Z,2.05
2023-12-17T04:05:30.274Z,1.70
2023-12-17T04:08:02.681Z,1.90
2023-12-17T04:10:33.566Z,2.53
2023-12-17T04:13:04.441Z,2.42
2023-12-17T04:15:36.273Z,2.22
2023-12-17T04:18:06.851Z,2.13
2023-12-17T04:20:37.369Z,1.92
2023-12-17T04:23:07.542Z,2.30
2023-12-17T04:25:37.752Z,1.80
2023-12-17T04:28:07.782Z,2.03
2023-12-17T04:30:38.647Z,2.00
2023-12-17T04:33:08.771Z,2.45
2023-12-17T04:35:39.597Z,2.20
2023-12-17T04:38:10.202Z,2.20
2023-12-17T04:40:42.391Z,2.22
2023-12-17T04:43:14.112Z,2.38
2023-12-17T04:45:47.813Z,1.77
2023-12-17T04:48:18.055Z,2.20
2023-12-17T04:50:48.530Z,1.80
2023-12-17T04:53:19.418Z,2.00
2023-12-17T04:55:49.617Z,1.63
2023-12-17T04:58:19.816Z,1.83
2023-12-17T05:00:50.569Z,1.88
2023-12-17T05:03:21.501Z,1.80
2023-12-17T05:05:51.646Z,2.10
2023-12-17T05:08:23.038Z,1.70
2023-12-17T05:10:54.552Z,1.85
2023-12-17T05:13:24.924Z,1.90
2023-12-17T05:15:56.437Z,2.60
2023-12-17T05:18:26.797Z,1.95
2023-12-17T05:21:00.712Z,2.05
2023-12-17T05:23:32.269Z,2.00
2023-12-17T05:26:03.827Z,1.92
2023-12-17T05:28:34.009Z,2.55
2023-12-17T05:31:03.945Z,2.20
2023-12-17T05:33:34.879Z,2.13
2023-12-17T05:36:09.191Z,1.70
2023-12-17T05:38:39.144Z,2.22
2023-12-17T05:41:09.897Z,2.08
2023-12-17T05:43:42.327Z,1.95
2023-12-17T05:46:14.495Z,2.17
2023-12-17T05:48:45.644Z,2.35
2023-12-17T05:51:16.596Z,2.05
2023-12-17T05:53:48.023Z,2.30
2023-12-17T05:56:20.625Z,2.25
2023-12-17T05:58:52.273Z,1.95
2023-12-17T06:01:22.280Z,2.15
2023-12-17T06:03:52.387Z,2.83
2023-12-17T06:06:23.062Z,2.03
2023-12-17T06:08:54.520Z,2.30
2023-12-17T06:11:24.837Z,2.30
2023-12-17T06:13:54.952Z,2.45
2023-12-17T06:16:26.705Z,1.90
2023-12-17T06:18:58.118Z,2.42
2023-12-17T06:21:30.377Z,2.45
2023-12-17T06:24:01.414Z,2.00
2023-12-17T06:26:32.590Z,2.20
2023-12-17T06:29:03.318Z,2.22
2023-12-17T06:31:34.181Z,2.05
2023-12-17T06:34:04.842Z,2.13
2023-12-17T06:36:35.355Z,2.60
2023-12-17T06:39:11.239Z,2.13
2023-12-17T06:41:49.706Z,2.38
2023-12-17T06:44:20.822Z,2.20
2023-12-17T06:46:52.923Z,2.03
2023-12-17T06:49:23.459Z,2.20
2023-12-17T06:51:53.334Z,2.20
2023-12-17T06:54:24.012Z,2.40
2023-12-17T06:56:55.370Z,2.22
2023-12-17T06:59:25.342Z,2.55
2023-12-17T07:01:55.225Z,2.17
2023-12-17T07:04:25.258Z,2.50
2023-12-17T07:06:55.092Z,2.25
2023-12-17T07:09:27.198Z,2.47
2023-12-17T07:14:27.837Z,2.30
2023-12-17T07:16:59.714Z,2.20
2023-12-17T07:19:30.511Z,2.47
2023-12-17T07:22:00.554Z,2.15
2023-12-17T07:24:31.738Z,2.00
2023-12-17T07:27:01.898Z,2.15
2023-12-17T07:29:32.782Z,2.22
2023-12-17T07:32:02.899Z,2.60
2023-12-17T07:34:34.205Z,2.20
2023-12-17T07:37:05.513Z,2.17
2023-12-17T07:39:37.323Z,2.28
2023-12-17T07:42:07.879Z,2.50
2023-12-17T07:44:38.108Z,2.30
2023-12-17T07:47:08.325Z,2.53
2023-12-17T07:49:39.568Z,2.47
2023-12-17T07:52:10.575Z,2.35
2023-12-17T07:54:41.675Z,2.35
2023-12-17T07:57:13.202Z,2.35
2023-12-17T07:59:44.577Z,2.35
2023-12-17T08:02:15.684Z,2.25
2023-12-17T08:04:47.583Z,2.20
2023-12-17T08:07:18.678Z,2.10
2023-12-17T08:09:49.048Z,2.15
2023-12-17T08:12:20.124Z,2.42
2023-12-17T08:14:51.134Z,2.30
2023-12-17T08:17:21.653Z,2.53
2023-12-17T08:19:51.940Z,2.25
2023-12-17T08:22:23.024Z,2.85
2023-12-17T08:24:53.733Z,2.67
2023-12-17T08:27:24.030Z,2.30
2023-12-17T08:29:54.399Z,2.55
2023-12-17T08:32:25.535Z,3.25
2023-12-17T08:34:56.894Z,2.22
2023-12-17T08:37:28.744Z,2.22
2023-12-17T08:40:00.935Z,2.75
2023-12-17T08:42:31.251Z,2.25
2023-12-17T08:45:02.175Z,2.65
2023-12-17T08:47:33.525Z,2.47
2023-12-17T08:50:07.960Z,2.25
2023-12-17T08:52:39.128Z,2.50
2023-12-17T08:55:10.381Z,2.15
2023-12-17T08:57:41.764Z,2.13
2023-12-17T09:00:13.760Z,2.33
2023-12-17T09:02:43.997Z,2.30
2023-12-17T09:05:15.449Z,2.35
2023-12-17T09:07:46.118Z,2.17
2023-12-17T09:10:17.503Z,2.15
2023-12-17T09:12:48.202Z,2.03
2023-12-17T09:15:19.253Z,1.90
2023-12-17T09:17:49.984Z,2.17
2023-12-17T09:20:20.593Z,2.40
2023-12-17T09:22:51.356Z,1.92
2023-12-17T09:25:21.781Z,2.10
2023-12-17T09:27:54.864Z,1.67
2023-12-17T09:30:26.010Z,2.35
2023-12-17T09:32:56.493Z,2.05
2023-12-17T09:35:26.378Z,1.73
2023-12-17T09:37:56.823Z,1.65
2023-12-17T09:40:27.491Z,1.70
2023-12-17T09:42:59.271Z,2.00
2023-12-17T09:45:29.682Z,1.85
2023-12-17T09:48:01.237Z,2.08
2023-12-17T09:50:32.877Z,3.08
2023-12-17T09:53:03.267Z,2.25
2023-12-17T09:55:33.236Z,1.70
2023-12-17T09:58:09.916Z,2.80
2023-12-17T10:00:41.187Z,3.38
2023-12-17T10:03:15.066Z,3.72
2023-12-17T10:05:51.998Z,4.55
2023-12-17T10:08:23.592Z,10.23
2023-12-17T10:10:54.178Z,13.88
2023-12-17T10:13:26.858Z,4.78
2023-12-17T10:15:58.531Z,2.88
2023-12-17T10:18:29.456Z,3.50
2023-12-17T10:21:00.841Z,4.70
2023-12-17T10:23:31.710Z,7.70
2023-12-17T10:26:03.424Z,18.73
2023-12-17T10:28:34.860Z,17.38
2023-12-17T10:31:07.639Z,21.08
2023-12-17T10:33:44.130Z,13.68
2023-12-17T10:36:15.797Z,15.90
2023-12-17T10:38:46.631Z,22.33
2023-12-17T10:41:18.535Z,20.00
2023-12-17T10:43:50.517Z,21.10
2023-12-17T10:46:21.128Z,25.13
2023-12-17T10:48:53.082Z,24.52
2023-12-17T10:51:26.470Z,20.05
2023-12-17T10:53:56.685Z,20.20
2023-12-17T10:56:27.462Z,18.55
2023-12-17T10:58:57.972Z,16.60
2023-12-17T11:01:29.697Z,16.73
2023-12-17T11:04:01.209Z,18.42
2023-12-17T11:09:02.586Z,13.77
2023-12-17T11:11:34.420Z,7.35
2023-12-17T11:14:05.397Z,10.73
2023-12-17T11:16:36.909Z,10.32
2023-12-17T11:19:07.346Z,5.78
2023-12-17T11:21:38.317Z,4.55
2023-12-17T11:24:10.283Z,4.20
2023-12-17T11:26:48.057Z,3.25
2023-12-17T11:29:41.649Z,2.80
2023-12-17T11:32:12.566Z,2.50
2023-12-17T11:34:43.447Z,2.42
2023-12-17T11:37:15.318Z,1.58
2023-12-17T11:39:46.387Z,1.88
2023-12-17T11:42:17.441Z,1.98
2023-12-17T11:44:54.566Z,1.65
2023-12-17T11:47:28.953Z,1.73
2023-12-17T11:50:05.577Z,1.50
2023-12-17T11:52:37.627Z,1.60
2023-12-17T11:55:08.211Z,1.60
2023-12-17T11:57:39.390Z,1.40
2023-12-17T12:00:15.362Z,1.65
2023-12-17T12:02:48.782Z,1.70
2023-12-17T12:05:20.499Z,1.75
2023-12-17T12:07:56.294Z,1.73
2023-12-17T12:10:26.262Z,1.60
2023-12-17T12:13:06.510Z,1.30
2023-12-17T12:15:37.793Z,1.50
2023-12-17T12:18:21.879Z,1.90
2023-12-17T12:20:52.853Z,1.65
2023-12-17T12:23:23.698Z,1.52
2023-12-17T12:25:59.615Z,1.73
2023-12-17T12:28:30.701Z,1.58
2023-12-17T12:31:11.457Z,1.70
2023-12-17T12:33:41.658Z,1.60
2023-12-17T12:36:13.600Z,1.70
2023-12-17T12:38:43.992Z,1.85
2023-12-17T12:41:14.936Z,1.98
2023-12-17T12:43:45.043Z,1.85
2023-12-17T12:46:15.816Z,1.55
2023-12-17T12:48:46.002Z,1.50
2023-12-17T12:51:15.872Z,1.90
2023-12-17T12:53:47.356Z,1.92
2023-12-17T12:56:18.751Z,1.75
2023-12-17T12:58:49.470Z,1.90
2023-12-17T13:01:19.375Z,1.55
2023-12-17T13:03:49.599Z,1.55
2023-12-17T13:06:20.563Z,1.58
2023-12-17T13:11:22.289Z,1.60
2023-12-17T13:13:52.097Z,2.13
2023-12-17T13:16:21.888Z,2.00
2023-12-17T13:18:58.186Z,2.03
2023-12-17T13:21:32.875Z,1.83
2023-12-17T13:24:03.344Z,1.58
2023-12-17T13:26:33.422Z,1.55
2023-12-17T13:29:05.647Z,1.50
2023-12-17T13:31:38.086Z,1.73
2023-12-17T13:34:09.483Z,1.60
2023-12-17T13:36:40.007Z,1.83
2023-12-17T13:39:09.868Z,1.70
2023-12-17T13:41:45.294Z,1.30
2023-12-17T13:44:19.207Z,1.27
2023-12-17T13:46:49.251Z,1.67
2023-12-17T13:49:19.618Z,2.13
2023-12-17T13:51:50.857Z,1.60
2023-12-17T13:54:20.728Z,1.88
2023-12-17T13:56:51.060Z,1.67
2023-12-17T13:59:21.370Z,1.60
2023-12-17T14:01:53.811Z,1.60
2023-12-17T14:04:24.686Z,1.27
2023-12-17T14:06:54.614Z,1.52
2023-12-17T14:09:24.915Z,1.60
2023-12-17T14:11:55.375Z,1.60
2023-12-17T14:14:25.205Z,1.63
2023-12-17T14:16:55.966Z,1.73
2023-12-17T14:19:27.455Z,1.70
2023-12-17T14:24:28.841Z,1.60
2023-12-17T14:27:00.609Z,1.95
2023-12-17T14:29:31.585Z,1.52
2023-12-17T14:32:05.011Z,1.23
2023-12-17T14:34:39.882Z,1.40
2023-12-17T14:37:10.248Z,1.67
2023-12-17T14:39:42.595Z,1.63
2023-12-17T14:42:13.896Z,1.40
2023-12-17T14:47:14.784Z,1.63
2023-12-17T14:49:44.817Z,1.65
2023-12-17T14:52:15.513Z,1.60
2023-12-17T14:54:45.696Z,1.33
2023-12-17T14:57:15.937Z,1.98
2023-12-17T14:59:46.591Z,1.23
2023-12-17T15:02:16.618Z,1.42
2023-12-17T15:04:48.320Z,1.33
2023-12-17T15:07:18.306Z,1.85
2023-12-17T15:09:48.716Z,1.25
2023-12-17T15:12:18.820Z,1.58
2023-12-17T15:14:48.622Z,1.45
2023-12-17T15:17:18.553Z,1.50
2023-12-17T15:19:51.458Z,1.40
2023-12-17T15:22:24.897Z,1.38
2023-12-17T15:24:54.850Z,1.30
2023-12-17T15:27:26.549Z,1.33
2023-12-17T15:29:56.898Z,1.30
2023-12-17T15:32:27.606Z,1.48
2023-12-17T15:34:57.588Z,1.50
2023-12-17T15:37:28.380Z,1.60
2023-12-17T15:39:58.726Z,1.48
2023-12-17T15:42:28.838Z,1.30
2023-12-17T15:44:59.790Z,1.52
2023-12-17T15:47:30.334Z,1.35
2023-12-17T15:50:01.463Z,1.63
2023-12-17T15:52:32.108Z,1.60
2023-12-17T15:55:02.280Z,1.35
2023-12-17T15:57:32.115Z,1.40
2023-12-17T16:00:09.031Z,1.20
2023-12-17T16:02:40.395Z,1.48
2023-12-17T16:05:10.907Z,1.30
2023-12-17T16:07:54.060Z,1.10
2023-12-17T16:10:27.508Z,1.38
2023-12-17T16:12:57.925Z,1.50
2023-12-17T16:15:30.316Z,1.50
2023-12-17T16:18:00.727Z,1.50
2023-12-17T16:20:30.735Z,1.30
2023-12-17T16:23:01.019Z,1.45
2023-12-17T16:25:31.466Z,1.30
2023-12-17T16:28:01.386Z,1.67
2023-12-17T16:30:31.364Z,1.30
2023-12-17T16:33:01.317Z,1.58
2023-12-17T16:35:31.763Z,1.27
2023-12-17T16:38:02.284Z,1.35
2023-12-17T16:40:32.472Z,1.50
2023-12-17T16:43:05.188Z,1.17
2023-12-17T16:45:36.471Z,1.40
2023-12-17T16:48:09.288Z,1.52
2023-12-17T16:50:39.827Z,1.40
2023-12-17T16:53:11.126Z,1.98
2023-12-17T16:55:42.721Z,1.38
2023-12-17T16:58:15.640Z,1.40
2023-12-17T17:00:46.644Z,1.58
2023-12-17T17:03:17.528Z,1.40
2023-12-17T17:05:48.107Z,1.25
2023-12-17T17:08:18.373Z,1.33
2023-12-17T17:10:49.499Z,1.30
2023-12-17T17:13:19.770Z,1.40
2023-12-17T17:15:50.397Z,1.52
2023-12-17T17:18:20.702Z,1.30
2023-12-17T17:20:50.994Z,1.17
2023-12-17T17:23:21.745Z,1.55
2023-12-17T17:25:52.149Z,1.10
2023-12-17T17:28:24.719Z,1.20
2023-12-17T17:30:56.552Z,1.40
2023-12-17T17:33:26.838Z,1.50
2023-12-17T17:35:56.934Z,1.83
2023-12-17T17:38:27.185Z,2.60
2023-12-17T17:40:57.343Z,1.50
2023-12-17T17:43:27.157Z,1.50
2023-12-17T17:45:56.974Z,1.40
2023-12-17T17:48:28.091Z,1.20
2023-12-17T17:51:04.541Z,1.42
2023-12-17T17:53:37.016Z,1.42
2023-12-17T17:56:07.696Z,1.30
2023-12-17T17:58:39.916Z,1.80
2023-12-17T18:01:10.974Z,1.38
2023-12-17T18:03:41.507Z,1.40
2023-12-17T18:06:11.443Z,2.10
2023-12-17T18:08:41.299Z,1.52
2023-12-17T18:11:11.305Z,1.48
2023-12-17T18:13:41.374Z,1.60
2023-12-17T18:16:11.164Z,1.30
2023-12-17T18:18:42.474Z,1.20
2023-12-17T18:21:13.066Z,1.30
2023-12-17T18:23:45.519Z,1.20
2023-12-17T18:26:23.516Z,1.65
2023-12-17T18:28:56.677Z,1.73
2023-12-17T18:31:30.513Z,1.70
2023-12-17T18:34:01.094Z,1.55
2023-12-17T18:36:32.284Z,1.27
2023-12-17T18:39:03.385Z,1.55
2023-12-17T18:41:33.847Z,1.40
2023-12-17T18:44:05.106Z,1.42
2023-12-17T18:49:04.769Z,1.52
2023-12-17T18:51:35.590Z,1.60
2023-12-17T18:54:05.647Z,2.70
2023-12-17T18:56:37.561Z,1.40
2023-12-17T18:59:09.185Z,1.50
2023-12-17T19:01:39.606Z,1.23
2023-12-17T19:04:09.919Z,1.27
2023-12-17T19:06:40.799Z,1.50
2023-12-17T19:09:11.324Z,1.42
2023-12-17T19:11:41.501Z,1.40
2023-12-17T19:14:12.608Z,1.65
2023-12-17T19:16:44.578Z,1.25
2023-12-17T19:19:16.187Z,1.30
2023-12-17T19:21:46.717Z,1.40
2023-12-17T19:24:16.802Z,1.42
2023-12-17T19:26:46.620Z,1.40
2023-12-17T19:29:16.449Z,1.50
2023-12-17T19:31:49.597Z,1.55
2023-12-17T19:34:22.352Z,1.40
2023-12-17T19:36:52.586Z,1.70
2023-12-17T19:39:24.898Z,2.00
2023-12-17T19:41:56.599Z,1.98
2023-12-17T19:44:27.148Z,1.83
2023-12-17T19:46:59.332Z,1.52
2023-12-17T19:49:31.268Z,1.63
2023-12-17T19:52:02.487Z,1.65
2023-12-17T19:54:36.093Z,2.22
2023-12-17T19:57:07.424Z,1.15
2023-12-17T19:59:37.804Z,1.13
2023-12-17T20:02:08.409Z,1.00
2023-12-17T20:04:38.463Z,1.20
2023-12-17T20:07:08.759Z,1.48
2023-12-17T20:09:40.259Z,1.52
2023-12-17T20:12:10.880Z,1.30
2023-12-17T20:14:41.357Z,1.10
2023-12-17T20:17:12.721Z,1.30
2023-12-17T20:19:43.674Z,1.75
2023-12-17T20:22:13.721Z,1.55
2023-12-17T20:24:45.929Z,1.35
2023-12-17T20:27:16.489Z,1.60
2023-12-17T20:29:47.122Z,1.20
2023-12-17T20:32:17.298Z,1.50
2023-12-17T20:34:47.563Z,1.40
2023-12-17T20:37:17.653Z,1.85
2023-12-17T20:39:48.087Z,1.58
2023-12-17T20:42:19.053Z,1.63
2023-12-17T20:44:49.392Z,1.55
2023-12-17T20:47:19.473Z,1.65
2023-12-17T20:49:50.465Z,1.85
2023-12-17T20:52:20.999Z,1.70
2023-12-17T20:55:01.370Z,10.50
2023-12-17T20:57:35.028Z,8.25
2023-12-17T21:00:06.616Z,22.50
2023-12-17T21:02:36.719Z,18.02
2023-12-17T21:05:07.101Z,1.60
2023-12-17T21:07:44.892Z,1.45
2023-12-17T21:14:36.731Z,1.70
2023-12-17T21:17:07.278Z,1.40
2023-12-17T21:19:37.324Z,1.15
2023-12-17T21:22:08.498Z,1.40
2023-12-17T21:24:39.004Z,1.23
2023-12-17T21:27:30.823Z,1.80
2023-12-17T21:30:01.668Z,1.70
2023-12-17T21:32:56.168Z,1.65
2023-12-17T21:35:27.826Z,2.83
2023-12-17T21:38:24.724Z,1.58
2023-12-17T21:40:55.358Z,1.30
2023-12-17T21:43:29.175Z,1.50
2023-12-17T21:45:59.959Z,1.40
2023-12-17T21:48:30.535Z,1.50
2023-12-17T21:51:00.558Z,1.40
2023-12-17T21:53:30.507Z,1.20
2023-12-17T21:56:00.438Z,1.20
2023-12-17T21:58:31.789Z,1.25
2023-12-17T22:01:03.380Z,1.10
2023-12-17T22:03:34.473Z,1.17
2023-12-17T22:06:05.531Z,1.10
2023-12-17T22:08:35.823Z,1.58
2023-12-17T22:11:06.937Z,1.63
2023-12-17T22:13:40.083Z,1.30
2023-12-17T22:16:19.218Z,1.38
2023-12-17T22:18:49.592Z,1.27
2023-12-17T22:21:23.683Z,1.60
2023-12-17T22:23:54.874Z,1.25
2023-12-17T22:26:26.307Z,1.52
2023-12-17T22:28:56.998Z,1.35
2023-12-17T22:31:27.028Z,1.40
2023-12-17T22:33:57.695Z,1.20
2023-12-17T22:36:30.414Z,1.30
2023-12-17T22:39:00.466Z,1.38
2023-12-17T22:41:34.187Z,1.50
2023-12-17T22:44:37.575Z,1.55
2023-12-17T22:47:11.291Z,1.83
2023-12-17T23:06:33.365Z,1.63
2023-12-17T23:09:04.515Z,1.65
2023-12-17T23:11:34.623Z,1.98
2023-12-17T23:14:04.433Z,1.80
2023-12-17T23:16:37.763Z,1.75
2023-12-17T23:19:10.463Z,2.90
2023-12-17T23:21:40.641Z,1.83
2023-12-17T23:24:11.497Z,1.60
2023-12-17T23:26:42.249Z,1.70
2023-12-17T23:29:13.078Z,1.80
